createdAt,value
2023-03-07T00:02:08.879Z,2.85
2023-03-07T00:04:36.873Z,2.84
2023-03-07T00:07:04.847Z,2.84
2023-03-07T00:09:32.448Z,2.82
2023-03-07T00:12:00.128Z,2.82
2023-03-07T00:14:28.908Z,2.83
2023-03-07T00:16:56.524Z,2.82
2023-03-07T00:19:24.566Z,2.83
2023-03-07T00:21:52.201Z,2.85
2023-03-07T00:24:19.802Z,2.86
2023-03-07T00:26:47.606Z,2.87
2023-03-07T00:29:15.247Z,2.90
2023-03-07T00:31:43.314Z,2.91
2023-03-07T00:34:11.057Z,2.93
2023-03-07T00:36:38.972Z,2.95
2023-03-07T00:39:07.123Z,2.95
2023-03-07T00:41:35.398Z,2.97
2023-03-07T00:44:03.025Z,2.97
2023-03-07T00:46:30.702Z,2.97
2023-03-07T00:48:58.325Z,2.97
2023-03-07T00:51:25.937Z,2.97
2023-03-07T00:53:53.592Z,2.98
2023-03-07T00:56:21.214Z,3.00
2023-03-07T00:58:48.843Z,3.03
2023-03-07T01:01:16.522Z,3.02
2023-03-07T01:03:44.290Z,3.04
2023-03-07T01:06:12.246Z,3.06
2023-03-07T01:08:39.851Z,3.07
2023-03-07T01:11:07.474Z,3.08
2023-03-07T01:13:35.032Z,3.11
2023-03-07T01:16:02.624Z,3.12
2023-03-07T01:18:30.938Z,3.14
2023-03-07T01:20:58.532Z,3.16
2023-03-07T01:23:26.165Z,3.19
2023-03-07T01:25:53.824Z,3.21
2023-03-07T01:28:21.428Z,3.22
2023-03-07T01:30:49.361Z,3.23
2023-03-07T01:33:17.004Z,3.24
2023-03-07T01:35:44.628Z,3.26
2023-03-07T01:38:12.213Z,3.27
2023-03-07T01:40:40.880Z,3.27
2023-03-07T01:43:08.489Z,3.29
2023-03-07T01:45:36.093Z,3.31
2023-03-07T01:48:04.086Z,3.32
2023-03-07T01:50:31.662Z,3.35
2023-03-07T01:52:59.409Z,3.36
2023-03-07T01:55:27.362Z,3.38
2023-03-07T01:57:54.966Z,3.41
2023-03-07T02:00:25.586Z,3.43
2023-03-07T02:02:53.503Z,3.46
2023-03-07T02:05:21.125Z,3.48
2023-03-07T02:07:49.068Z,3.50
2023-03-07T02:10:16.688Z,3.52
2023-03-07T02:12:44.246Z,3.55
2023-03-07T02:15:11.814Z,3.57
2023-03-07T02:17:39.606Z,3.59
2023-03-07T02:20:07.551Z,3.61
2023-03-07T02:22:35.091Z,3.62
2023-03-07T02:25:02.998Z,3.64
2023-03-07T02:27:30.540Z,3.66
2023-03-07T02:29:58.307Z,3.67
2023-03-07T02:32:26.296Z,3.68
2023-03-07T02:34:53.861Z,3.70
2023-03-07T02:37:21.425Z,3.72
2023-03-07T02:39:49.017Z,3.74
2023-03-07T02:42:16.603Z,3.76
2023-03-07T02:44:44.177Z,3.78
2023-03-07T02:47:12.112Z,3.80
2023-03-07T02:49:39.704Z,3.82
2023-03-07T02:52:07.315Z,3.84
2023-03-07T02:54:34.941Z,3.85
2023-03-07T02:57:02.546Z,3.86
2023-03-07T02:59:30.120Z,3.87
2023-03-07T03:01:57.869Z,3.89
2023-03-07T03:04:25.521Z,3.89
2023-03-07T03:06:53.163Z,3.91
2023-03-07T03:09:21.264Z,3.92
2023-03-07T03:11:48.842Z,3.92
2023-03-07T03:14:16.567Z,3.93
2023-03-07T03:16:44.192Z,3.93
2023-03-07T03:19:11.775Z,3.94
2023-03-07T03:21:39.936Z,3.93
2023-03-07T03:24:07.549Z,3.94
2023-03-07T03:26:35.100Z,3.94
2023-03-07T03:29:02.679Z,3.94
2023-03-07T03:31:30.634Z,3.92
2023-03-07T03:34:10.802Z,3.93
2023-03-07T03:36:38.454Z,3.92
2023-03-07T03:39:10.961Z,3.92
2023-03-07T03:41:38.793Z,3.93
2023-03-07T03:44:06.496Z,3.91
2023-03-07T03:46:34.537Z,3.91
2023-03-07T03:49:02.140Z,3.88
2023-03-07T03:51:29.760Z,3.85
2023-03-07T03:53:57.765Z,3.84
2023-03-07T03:56:25.345Z,3.83
2023-03-07T03:58:52.943Z,3.81
2023-03-07T04:01:20.498Z,3.78
2023-03-07T04:03:48.096Z,3.76
2023-03-07T04:06:15.871Z,3.73
2023-03-07T04:08:44.459Z,3.73
2023-03-07T04:11:12.422Z,3.72
2023-03-07T04:13:40.294Z,3.71
2023-03-07T04:16:07.954Z,3.72
2023-03-07T04:18:35.573Z,3.71
2023-03-07T04:21:03.170Z,3.71
2023-03-07T04:23:31.361Z,3.71
2023-03-07T04:25:58.966Z,3.71
2023-03-07T04:28:26.606Z,3.72
2023-03-07T04:30:54.158Z,3.72
2023-03-07T04:33:21.744Z,3.72
2023-03-07T04:35:50.073Z,3.72
2023-03-07T04:38:17.718Z,3.72
2023-03-07T04:40:45.273Z,3.71
2023-03-07T04:43:13.061Z,3.72
2023-03-07T04:45:40.675Z,3.71
2023-03-07T04:48:08.693Z,3.72
2023-03-07T04:50:36.375Z,3.73
2023-03-07T04:53:03.964Z,3.75
2023-03-07T04:55:31.918Z,3.75
2023-03-07T04:57:59.517Z,3.77
2023-03-07T05:00:27.509Z,3.78
2023-03-07T05:02:55.401Z,3.79
2023-03-07T05:05:23.028Z,3.81
2023-03-07T05:07:50.747Z,3.84
2023-03-07T05:10:18.304Z,3.85
2023-03-07T05:12:46.279Z,3.87
2023-03-07T05:15:13.853Z,3.89
2023-03-07T05:17:41.696Z,3.90
2023-03-07T05:20:10.580Z,3.90
2023-03-07T05:22:38.191Z,3.92
2023-03-07T05:25:06.231Z,3.92
2023-03-07T05:27:33.858Z,3.93
2023-03-07T05:30:01.479Z,3.94
2023-03-07T05:32:29.323Z,3.93
2023-03-07T05:34:56.977Z,3.92
2023-03-07T05:37:24.954Z,3.92
2023-03-07T05:39:52.849Z,3.92
2023-03-07T05:42:20.452Z,3.92
2023-03-07T05:44:48.018Z,3.91
2023-03-07T05:47:15.613Z,3.91
2023-03-07T05:49:43.635Z,3.90
2023-03-07T05:52:11.250Z,3.89
2023-03-07T05:54:38.854Z,3.88
2023-03-07T05:57:06.808Z,3.87
2023-03-07T05:59:34.484Z,3.87
2023-03-07T06:02:02.459Z,3.85
2023-03-07T06:04:30.138Z,3.84
2023-03-07T06:06:57.826Z,3.84
2023-03-07T06:09:26.119Z,3.83
2023-03-07T06:11:53.887Z,3.80
2023-03-07T06:14:21.965Z,3.81
2023-03-07T06:16:49.554Z,3.78
2023-03-07T06:19:17.174Z,3.78
2023-03-07T06:21:44.983Z,3.77
2023-03-07T06:24:12.900Z,3.75
2023-03-07T06:26:40.967Z,3.76
2023-03-07T06:29:08.582Z,3.73
2023-03-07T06:31:36.232Z,3.74
2023-03-07T06:34:04.067Z,3.72
2023-03-07T06:36:31.750Z,3.72
2023-03-07T06:38:59.712Z,3.72
2023-03-07T06:41:27.441Z,3.72
2023-03-07T06:43:55.010Z,3.73
2023-03-07T06:46:23.945Z,3.74
2023-03-07T06:48:52.396Z,3.75
2023-03-07T06:51:20.399Z,3.74
2023-03-07T06:53:48.507Z,3.75
2023-03-07T06:56:16.281Z,3.74
2023-03-07T06:58:44.027Z,3.76
2023-03-07T07:01:11.694Z,3.76
2023-03-07T07:03:39.772Z,3.78
2023-03-07T07:06:07.423Z,3.78
2023-03-07T07:08:35.326Z,3.80
2023-03-07T07:11:03.052Z,3.82
2023-03-07T07:13:30.679Z,3.83
2023-03-07T07:15:59.197Z,3.84
2023-03-07T07:18:26.973Z,3.85
2023-03-07T07:20:54.719Z,3.88
2023-03-07T07:23:22.352Z,3.88
2023-03-07T07:25:50.088Z,3.90
2023-03-07T07:28:18.159Z,3.91
2023-03-07T07:30:45.918Z,3.94
2023-03-07T07:33:13.804Z,3.98
2023-03-07T07:35:41.754Z,4.00
2023-03-07T07:38:09.501Z,4.02
2023-03-07T07:40:37.606Z,4.03
2023-03-07T07:43:05.336Z,4.03
2023-03-07T07:45:33.081Z,4.05
2023-03-07T07:48:01.032Z,4.05
2023-03-07T07:50:28.724Z,4.05
2023-03-07T07:52:57.147Z,4.07
2023-03-07T07:55:25.832Z,4.08
2023-03-07T07:57:53.556Z,4.09
2023-03-07T08:00:21.639Z,4.09
2023-03-07T08:02:51.127Z,4.08
2023-03-07T08:05:19.177Z,4.08
2023-03-07T08:07:46.828Z,4.06
2023-03-07T08:10:16.170Z,4.05
2023-03-07T08:12:43.859Z,4.07
2023-03-07T08:15:11.936Z,4.08
2023-03-07T08:17:40.217Z,4.09
2023-03-07T08:20:08.701Z,4.10
2023-03-07T08:22:36.338Z,4.10
2023-03-07T08:25:04.820Z,4.10
2023-03-07T08:27:32.444Z,4.09
2023-03-07T08:30:00.522Z,4.09
2023-03-07T08:32:28.274Z,4.09
2023-03-07T08:34:56.089Z,4.10
2023-03-07T08:37:24.833Z,4.11
2023-03-07T08:39:52.725Z,4.13
2023-03-07T08:42:21.106Z,4.13
2023-03-07T08:44:48.815Z,4.14
2023-03-07T08:47:16.913Z,4.14
2023-03-07T08:49:45.190Z,4.15
2023-03-07T08:52:13.099Z,4.18
2023-03-07T08:54:41.345Z,4.19
2023-03-07T08:57:09.081Z,4.22
2023-03-07T08:59:36.886Z,4.24
2023-03-07T09:02:04.965Z,4.24
2023-03-07T09:04:33.341Z,4.25
2023-03-07T09:07:01.828Z,4.28
2023-03-07T09:09:29.929Z,4.28
2023-03-07T09:11:57.772Z,4.30
2023-03-07T09:14:25.772Z,4.32
2023-03-07T09:16:53.870Z,4.34
2023-03-07T09:19:22.289Z,4.34
2023-03-07T09:21:50.505Z,4.33
2023-03-07T09:24:18.652Z,4.34
2023-03-07T09:26:46.830Z,4.34
2023-03-07T09:29:14.668Z,4.34
2023-03-07T09:31:44.851Z,4.33
2023-03-07T09:34:12.749Z,4.31
2023-03-07T09:36:40.557Z,4.30
2023-03-07T09:39:08.730Z,4.29
2023-03-07T09:41:36.522Z,4.28
2023-03-07T09:44:05.174Z,4.25
2023-03-07T09:46:33.214Z,4.22
2023-03-07T09:49:01.019Z,4.23
2023-03-07T09:51:29.729Z,4.22
2023-03-07T09:53:58.396Z,4.22
2023-03-07T09:56:27.483Z,4.23
2023-03-07T09:58:55.388Z,4.22
2023-03-07T10:01:23.473Z,4.21
2023-03-07T10:03:51.830Z,4.20
2023-03-07T10:06:20.137Z,4.17
2023-03-07T10:08:48.593Z,4.15
2023-03-07T10:11:16.557Z,4.10
2023-03-07T10:13:44.373Z,3.97
2023-03-07T10:16:12.674Z,3.86
2023-03-07T10:18:40.494Z,3.76
2023-03-07T10:21:08.966Z,3.70
2023-03-07T10:23:37.093Z,3.67
2023-03-07T10:26:05.070Z,3.65
2023-03-07T10:28:33.301Z,3.57
2023-03-07T10:31:01.505Z,3.48
2023-03-07T10:33:29.590Z,3.44
2023-03-07T10:35:57.500Z,3.40
2023-03-07T10:38:25.353Z,3.38
2023-03-07T10:40:53.327Z,3.29
2023-03-07T10:43:21.242Z,3.16
2023-03-07T10:45:49.468Z,3.07
2023-03-07T10:48:17.811Z,3.07
2023-03-07T10:50:45.726Z,3.07
2023-03-07T10:53:13.658Z,3.06
2023-03-07T10:55:41.594Z,3.10
2023-03-07T10:58:10.137Z,3.11
2023-03-07T11:00:38.259Z,3.14
2023-03-07T11:03:06.305Z,3.13
2023-03-07T11:05:34.488Z,3.13
2023-03-07T11:08:03.393Z,3.11
2023-03-07T11:10:32.156Z,3.10
2023-03-07T11:13:00.002Z,3.10
2023-03-07T11:15:27.936Z,3.09
2023-03-07T11:17:56.098Z,3.10
2023-03-07T11:20:23.998Z,3.11
2023-03-07T11:22:51.961Z,3.15
2023-03-07T11:25:19.935Z,3.20
2023-03-07T11:27:47.884Z,3.23
2023-03-07T11:30:16.721Z,3.28
2023-03-07T11:32:45.030Z,3.31
2023-03-07T11:35:13.089Z,3.31
2023-03-07T11:37:41.142Z,3.31
2023-03-07T11:40:08.957Z,3.31
2023-03-07T11:42:36.857Z,3.32
2023-03-07T11:45:05.128Z,3.35
2023-03-07T11:47:34.272Z,3.36
2023-03-07T11:50:02.090Z,3.36
2023-03-07T11:52:30.351Z,3.36
2023-03-07T11:54:59.186Z,3.35
2023-03-07T11:57:27.100Z,3.30
2023-03-07T11:59:55.483Z,3.27
2023-03-07T12:02:23.312Z,3.22
2023-03-07T12:04:52.948Z,3.18
2023-03-07T12:07:21.768Z,3.15
2023-03-07T12:09:52.517Z,3.15
2023-03-07T12:12:20.847Z,3.16
2023-03-07T12:14:49.007Z,3.23
2023-03-07T12:17:17.253Z,3.29
2023-03-07T12:19:45.310Z,3.38
2023-03-07T12:22:13.548Z,3.42
2023-03-07T12:24:41.898Z,3.46
2023-03-07T12:27:09.824Z,3.52
2023-03-07T12:29:37.873Z,3.57
2023-03-07T12:32:06.168Z,3.59
2023-03-07T12:34:34.321Z,3.60
2023-03-07T12:37:02.728Z,3.61
2023-03-07T12:39:31.081Z,3.64
2023-03-07T12:41:59.080Z,3.67
2023-03-07T12:44:27.451Z,3.68
2023-03-07T12:46:55.386Z,3.67
2023-03-07T12:49:23.620Z,3.64
2023-03-07T12:51:51.876Z,3.58
2023-03-07T12:54:19.916Z,3.52
2023-03-07T12:56:47.790Z,3.46
2023-03-07T12:59:15.847Z,3.38
2023-03-07T13:01:44.210Z,3.34
2023-03-07T13:04:12.131Z,3.33
2023-03-07T13:06:42.004Z,3.31
2023-03-07T13:09:12.471Z,3.29
2023-03-07T13:11:40.472Z,3.26
2023-03-07T13:14:09.453Z,3.23
2023-03-07T13:16:37.521Z,3.21
2023-03-07T13:19:05.493Z,3.21
2023-03-07T13:21:34.191Z,3.24
2023-03-07T13:24:02.395Z,3.25
2023-03-07T13:26:30.700Z,3.25
2023-03-07T13:28:58.641Z,3.25
2023-03-07T13:31:29.334Z,3.25
2023-03-07T13:33:57.277Z,3.27
2023-03-07T13:36:25.390Z,3.29
2023-03-07T13:38:53.903Z,3.32
2023-03-07T13:41:21.891Z,3.31
2023-03-07T13:43:49.981Z,3.29
2023-03-07T13:46:18.944Z,3.33
2023-03-07T13:48:46.943Z,3.37
2023-03-07T13:51:15.591Z,3.38
2023-03-07T13:53:43.775Z,3.40
2023-03-07T13:56:11.576Z,3.41
2023-03-07T13:58:40.121Z,3.41
2023-03-07T14:01:08.008Z,3.40
2023-03-07T14:03:36.769Z,3.38
2023-03-07T14:06:04.930Z,3.38
2023-03-07T14:08:33.929Z,3.40
2023-03-07T14:11:01.875Z,3.40
2023-03-07T14:13:29.953Z,3.38
2023-03-07T14:15:58.368Z,3.32
2023-03-07T14:18:26.251Z,3.31
2023-03-07T14:20:54.376Z,3.29
2023-03-07T14:23:22.431Z,3.29
2023-03-07T14:25:52.266Z,3.29
2023-03-07T14:28:20.971Z,3.28
2023-03-07T14:30:48.906Z,3.29
2023-03-07T14:33:16.752Z,3.31
2023-03-07T14:35:45.045Z,3.31
2023-03-07T14:38:13.013Z,3.30
2023-03-07T14:40:40.838Z,3.28
2023-03-07T14:43:08.913Z,3.26
2023-03-07T14:45:36.873Z,3.24
2023-03-07T14:48:05.040Z,3.22
2023-03-07T14:50:33.257Z,3.22
2023-03-07T14:53:02.558Z,3.21
2023-03-07T14:55:30.589Z,3.19
2023-03-07T14:57:58.657Z,3.17
2023-03-07T15:00:27.508Z,3.14
2023-03-07T15:02:55.403Z,3.12
2023-03-07T15:05:25.780Z,3.11
2023-03-07T15:07:55.077Z,3.10
2023-03-07T15:10:23.101Z,3.10
2023-03-07T15:12:51.418Z,3.09
2023-03-07T15:15:19.796Z,3.10
2023-03-07T15:17:48.012Z,3.11
2023-03-07T15:20:16.010Z,3.11
2023-03-07T15:22:43.956Z,3.12
2023-03-07T15:25:12.306Z,3.12
2023-03-07T15:27:40.661Z,3.11
2023-03-07T15:30:09.046Z,3.08
2023-03-07T15:32:36.981Z,3.06
2023-03-07T15:35:05.094Z,3.04
2023-03-07T15:37:35.120Z,3.02
2023-03-07T15:40:02.997Z,3.03
2023-03-07T15:42:31.606Z,3.01
2023-03-07T15:44:59.436Z,2.97
2023-03-07T15:47:27.382Z,2.95
2023-03-07T15:49:55.711Z,2.90
2023-03-07T15:52:23.484Z,2.86
2023-03-07T15:54:52.141Z,2.82
2023-03-07T15:57:20.278Z,2.79
2023-03-07T15:59:48.236Z,2.77
2023-03-07T16:02:18.573Z,2.76
2023-03-07T16:04:46.601Z,2.74
2023-03-07T16:07:15.100Z,2.73
2023-03-07T16:09:43.041Z,2.74
2023-03-07T16:12:11.135Z,2.73
2023-03-07T16:14:39.301Z,2.72
2023-03-07T16:17:07.291Z,2.71
2023-03-07T16:19:36.085Z,2.70
2023-03-07T16:22:04.874Z,2.67
2023-03-07T16:24:32.815Z,2.63
2023-03-07T16:27:00.871Z,2.61
2023-03-07T16:29:28.782Z,2.58
2023-03-07T16:31:57.530Z,2.57
2023-03-07T16:34:25.601Z,2.55
2023-03-07T16:36:53.473Z,2.54
2023-03-07T16:39:21.639Z,2.52
2023-03-07T16:41:49.704Z,2.51
2023-03-07T16:44:18.579Z,2.50
2023-03-07T16:46:46.487Z,2.52
2023-03-07T16:49:14.448Z,2.50
2023-03-07T16:51:42.798Z,2.49
2023-03-07T16:54:10.769Z,2.48
2023-03-07T16:56:39.345Z,2.44
2023-03-07T16:59:08.546Z,2.41
2023-03-07T17:01:36.653Z,2.38
2023-03-07T17:04:04.890Z,2.36
2023-03-07T17:06:39.235Z,2.33
2023-03-07T17:09:08.078Z,2.32
2023-03-07T17:11:35.954Z,2.30
2023-03-07T17:14:03.880Z,2.28
2023-03-07T17:16:32.170Z,2.27
2023-03-07T17:19:00.250Z,2.26
2023-03-07T17:21:28.483Z,2.24
2023-03-07T17:23:56.558Z,2.25
2023-03-07T17:26:24.525Z,2.23
2023-03-07T17:28:53.029Z,2.21
2023-03-07T17:31:21.204Z,2.21
2023-03-07T17:33:50.396Z,2.21
2023-03-07T17:36:18.445Z,2.19
2023-03-07T17:38:46.588Z,2.20
2023-03-07T17:41:14.827Z,2.19
2023-03-07T17:43:42.608Z,2.18
2023-03-07T17:46:11.221Z,2.15
2023-03-07T17:48:39.660Z,2.12
2023-03-07T17:51:07.663Z,2.11
2023-03-07T17:53:36.188Z,2.10
2023-03-07T17:56:04.078Z,2.10
2023-03-07T17:58:32.474Z,2.10
2023-03-07T18:01:00.705Z,2.10
2023-03-07T18:03:28.702Z,2.08
2023-03-07T18:05:56.891Z,2.08
2023-03-07T18:08:25.605Z,2.08
2023-03-07T18:10:54.327Z,2.07
2023-03-07T18:13:24.578Z,2.05
2023-03-07T18:15:52.719Z,2.07
2023-03-07T18:18:20.910Z,2.08
2023-03-07T18:20:48.754Z,2.09
2023-03-07T18:23:17.284Z,2.10
2023-03-07T18:25:45.167Z,2.13
2023-03-07T18:28:13.119Z,2.13
2023-03-07T18:30:41.493Z,2.13
2023-03-07T18:33:09.775Z,2.13
2023-03-07T18:35:37.713Z,2.12
2023-03-07T18:38:05.802Z,2.09
2023-03-07T18:40:33.643Z,2.08
2023-03-07T18:43:01.928Z,2.07
2023-03-07T18:45:30.034Z,2.06
2023-03-07T18:47:58.426Z,2.06
2023-03-07T18:50:26.385Z,2.06
2023-03-07T18:52:54.506Z,2.05
2023-03-07T18:55:23.063Z,2.06
2023-03-07T18:57:51.086Z,2.05
2023-03-07T19:00:20.173Z,2.05
2023-03-07T19:02:48.122Z,2.04
2023-03-07T19:05:16.279Z,2.04
2023-03-07T19:07:45.095Z,2.04
2023-03-07T19:10:12.966Z,2.02
2023-03-07T19:12:41.626Z,2.00
2023-03-07T19:15:09.641Z,2.00
2023-03-07T19:17:38.161Z,1.98
2023-03-07T19:20:06.100Z,1.97
2023-03-07T19:22:34.202Z,1.96
2023-03-07T19:25:02.458Z,1.96
2023-03-07T19:27:32.408Z,1.95
2023-03-07T19:30:01.092Z,1.95
2023-03-07T19:32:29.754Z,1.93
2023-03-07T19:34:57.639Z,1.92
2023-03-07T19:37:25.893Z,1.91
2023-03-07T19:39:54.171Z,1.91
2023-03-07T19:42:22.187Z,1.89
2023-03-07T19:44:50.471Z,1.89
2023-03-07T19:47:18.994Z,1.88
2023-03-07T19:49:48.912Z,1.87
2023-03-07T19:52:17.171Z,1.86
2023-03-07T19:54:45.698Z,1.86
2023-03-07T19:57:16.447Z,1.85
2023-03-07T19:59:45.344Z,1.85
2023-03-07T20:02:14.518Z,1.83
2023-03-07T20:04:42.873Z,1.84
2023-03-07T20:07:11.796Z,1.82
2023-03-07T20:09:39.938Z,1.82
2023-03-07T20:12:07.785Z,1.81
2023-03-07T20:14:38.630Z,1.79
2023-03-07T20:17:06.497Z,1.79
2023-03-07T20:19:34.382Z,1.79
2023-03-07T20:22:02.586Z,1.79
2023-03-07T20:24:30.932Z,1.79
2023-03-07T20:26:59.061Z,1.76
2023-03-07T20:29:27.226Z,1.78
2023-03-07T20:31:55.139Z,1.78
2023-03-07T20:34:25.347Z,1.76
2023-03-07T20:36:55.081Z,1.76
2023-03-07T20:39:22.938Z,1.74
2023-03-07T20:41:50.968Z,1.74
2023-03-07T20:44:19.238Z,1.74
2023-03-07T20:46:48.495Z,1.73
2023-03-07T20:49:16.450Z,1.75
2023-03-07T20:51:44.856Z,1.76
2023-03-07T20:54:12.789Z,1.78
2023-03-07T20:56:40.786Z,1.78
2023-03-07T20:59:09.683Z,1.78
2023-03-07T21:01:37.634Z,1.77
2023-03-07T21:04:06.942Z,1.77
2023-03-07T21:06:35.161Z,1.77
2023-03-07T21:09:06.554Z,1.76
2023-03-07T21:11:34.708Z,1.76
2023-03-07T21:14:02.758Z,1.76
2023-03-07T21:16:31.549Z,1.78
2023-03-07T21:19:01.506Z,1.78
2023-03-07T21:21:29.798Z,1.79
2023-03-07T21:23:58.419Z,1.79
2023-03-07T21:26:26.266Z,1.79
2023-03-07T21:28:54.748Z,1.78
2023-03-07T21:31:22.632Z,1.79
2023-03-07T21:33:50.571Z,1.79
2023-03-07T21:36:18.820Z,1.79
2023-03-07T21:38:46.765Z,1.79
2023-03-07T21:41:15.259Z,1.80
2023-03-07T21:43:43.238Z,1.82
2023-03-07T21:46:11.175Z,1.83
2023-03-07T21:48:39.482Z,1.84
2023-03-07T21:51:07.367Z,1.84
2023-03-07T21:53:35.931Z,1.86
2023-03-07T21:56:03.792Z,1.86
2023-03-07T21:58:31.670Z,1.86
2023-03-07T22:00:59.599Z,1.87
2023-03-07T22:03:27.547Z,1.87
2023-03-07T22:05:57.383Z,1.87
2023-03-07T22:08:25.341Z,1.87
2023-03-07T22:10:53.262Z,1.87
2023-03-07T22:13:21.080Z,1.89
2023-03-07T22:15:49.248Z,1.87
2023-03-07T22:18:18.193Z,1.86
2023-03-07T22:20:46.061Z,1.85
2023-03-07T22:23:13.902Z,1.84
2023-03-07T22:25:41.860Z,1.83
2023-03-07T22:28:09.713Z,1.83
2023-03-07T22:30:37.998Z,1.82
2023-03-07T22:33:05.850Z,1.82
2023-03-07T22:35:33.794Z,1.81
2023-03-07T22:38:02.961Z,1.81
2023-03-07T22:40:30.825Z,1.83
2023-03-07T22:42:59.101Z,1.83
2023-03-07T22:45:26.794Z,1.84
2023-03-07T22:47:55.180Z,1.85
2023-03-07T22:50:23.410Z,1.86
2023-03-07T22:52:51.242Z,1.85
2023-03-07T22:55:19.259Z,1.85
2023-03-07T22:57:47.027Z,1.86
2023-03-07T23:00:14.712Z,1.87
2023-03-07T23:02:42.435Z,1.87
2023-03-07T23:05:10.130Z,1.89
2023-03-07T23:07:38.102Z,1.89
2023-03-07T23:10:05.812Z,1.90
2023-03-07T23:12:33.565Z,1.92
2023-03-07T23:15:01.584Z,1.90
2023-03-07T23:17:29.328Z,1.92
2023-03-07T23:19:57.394Z,1.92
2023-03-07T23:22:25.690Z,1.91
2023-03-07T23:24:53.447Z,1.92
2023-03-07T23:27:21.099Z,1.91
2023-03-07T23:29:48.734Z,1.91
2023-03-07T23:32:16.831Z,1.93
2023-03-07T23:34:44.519Z,1.93
2023-03-07T23:37:12.148Z,1.93
2023-03-07T23:39:39.901Z,1.93
2023-03-07T23:42:07.598Z,1.94
2023-03-07T23:44:36.352Z,1.95
2023-03-07T23:47:03.994Z,1.94
2023-03-07T23:49:31.686Z,1.95
2023-03-07T23:51:59.317Z,1.95
2023-03-07T23:54:26.902Z,1.95
2023-03-07T23:56:55.187Z,1.94
2023-03-07T23:59:22.799Z,1.94
